Cardiff, Cardiff Airport (EGFF)

NameCardiff Airport
CityCardiff
CountryUnited Kingdom
ICAOEGFF
IATACWL
Altitude220 feet
CoordinatesGoogle Map
Live Air TrafficLiveATC.net
METAREGFF 230820Z 30012KT 9999 BKN015 15/13 Q1018
2024-07-23 08:20:00 Wind: West-Northwest (300°) 6.17 m/s - Visibility: > 10000 m - Temperature: 15 °C - Dew point: 13 °C - Humidity: 87.9% - Pressure: 1018 hPa

Sorry, no flights used the airport in this database.